Melun-Villaroche Air Base

Airport
ICAO code: 
LFPM
Summary
ICAO Region: 
EUR
Territory: 
Location: 
, Ile-de-France
Serving: 
Melun
Elevation: 
302 ft
Coordinates: 
Aerial View: 
48° 36' 17.01" N, 2° 40' 16.028" E
Metar
Observation
LFPM 241600Z AUTO 16005KT CAVOK 04/02 Q1031
Station
Melun
Date/Time
2022-01-24 16:00:00
Wind direction
160°
Wind speed
05 kts
Lowest cloud amount
clouds and visibility OK
Temperature
4°C
Dew point
2°C
Humidity
86%
QNH
1031 hPa
Weather condition
n/a

Runways

Designator Length Width Surface Rops
1/19 1300 30 ASP Yes/Yes
10/28 1975 45 ASP Yes/Yes
Airport map: 
Aerial View: 

SKYbrary Partners:

Safety knowledge contributed by: